Time;durP1;ratioP1;P1;durP2;ratioP2;P2;SDS_P1;SDS_P2;PMS_P1;PMS_P2;Temp;Humidity;BMP_temperature;BMP_pressure;BME280_temperature;BME280_humidity;BME280_pressure;Samples;Min_cycle;Max_cycle;Signal;HPM_P1;HPM_P2
2022/10/24 00:05:29;;;;;;;11.57;4.33;;;16.00;99.90;;;;;;21089052;28;20232;-70
2022/10/24 00:15:31;;;;;;;10.77;3.87;;;15.90;99.90;;;;;;21086547;28;20231;-70
2022/10/24 00:25:33;;;;;;;11.37;3.70;;;15.80;99.90;;;;;;21083107;28;20234;-70
2022/10/24 00:35:35;;;;;;;7.87;4.13;;;15.70;99.90;;;;;;21084976;28;20227;-71
2022/10/24 00:45:43;;;;;;;9.13;3.57;;;15.60;99.90;;;;;;21085010;28;20241;-70
2022/10/24 00:55:49;;;;;;;6.43;3.40;;;15.40;99.90;;;;;;21084467;28;20210;-70
2022/10/24 01:06:25;;;;;;;13.77;3.43;;;15.30;99.90;;;;;;21083706;28;20238;-70
2022/10/24 01:16:50;;;;;;;7.50;3.00;;;15.20;99.90;;;;;;21083492;28;20258;-71
2022/10/24 01:27:33;;;;;;;9.77;3.00;;;15.10;99.90;;;;;;21081872;28;20226;-70
2022/10/24 01:37:46;;;;;;;14.07;3.60;;;15.10;99.90;;;;;;21081151;28;20226;-71
2022/10/24 01:47:53;;;;;;;9.37;3.30;;;15.00;99.90;;;;;;21080941;28;20289;-71
2022/10/24 01:57:54;;;;;;;6.43;3.10;;;14.90;99.90;;;;;;21080037;28;20231;-71
2022/10/24 02:08:03;;;;;;;9.43;3.70;;;14.80;99.90;;;;;;21079303;28;20716;-71
2022/10/24 02:18:05;;;;;;;13.63;3.60;;;14.80;99.90;;;;;;21077397;28;20661;-70
2022/10/24 02:28:13;;;;;;;10.60;3.50;;;14.80;99.90;;;;;;21075531;28;20245;-70
2022/10/24 02:38:31;;;;;;;11.93;3.23;;;14.80;99.90;;;;;;21079850;28;20236;-71
2022/10/24 02:48:35;;;;;;;15.13;3.77;;;14.70;99.90;;;;;;21094950;28;20723;-71
2022/10/24 02:58:37;;;;;;;8.83;3.40;;;14.70;99.90;;;;;;21093908;28;20212;-71
2022/10/24 03:08:39;;;;;;;7.50;3.47;;;14.60;99.90;;;;;;21092844;28;20242;-70
2022/10/24 03:18:41;;;;;;;10.27;3.37;;;14.60;99.90;;;;;;21093093;28;20202;-70
2022/10/24 03:28:42;;;;;;;7.90;4.00;;;14.50;99.90;;;;;;21091522;28;20678;-70
2022/10/24 03:38:44;;;;;;;17.40;3.73;;;14.50;99.90;;;;;;21090458;28;20227;-71
2022/10/24 03:48:46;;;;;;;6.00;3.10;;;14.40;99.90;;;;;;21089506;28;20226;-71
2022/10/24 03:58:47;;;;;;;10.83;3.23;;;14.50;99.90;;;;;;21088025;28;20206;-70
2022/10/24 04:08:49;;;;;;;16.57;4.57;;;14.40;99.90;;;;;;21087466;28;20245;-70
2022/10/24 04:18:51;;;;;;;10.00;3.87;;;14.40;99.90;;;;;;21084246;28;20196;-71
2022/10/24 04:28:52;;;;;;;9.33;3.87;;;14.40;99.90;;;;;;21082421;28;20265;-71
2022/10/24 04:38:55;;;;;;;14.03;4.30;;;14.40;99.90;;;;;;21083592;28;20238;-71
2022/10/24 04:48:56;;;;;;;8.13;3.23;;;14.40;99.90;;;;;;21084367;28;20242;-72
2022/10/24 04:58:58;;;;;;;14.57;3.80;;;14.30;99.90;;;;;;21083277;28;20241;-71
2022/10/24 05:09:00;;;;;;;12.57;3.90;;;14.30;99.90;;;;;;21081793;28;20266;-70
2022/10/24 05:19:01;;;;;;;14.43;4.00;;;14.30;99.90;;;;;;21082562;28;20218;-69
2022/10/24 05:29:03;;;;;;;15.13;4.70;;;14.30;99.90;;;;;;21080795;28;20262;-70
2022/10/24 05:39:05;;;;;;;9.27;3.60;;;14.30;99.90;;;;;;21080074;28;20233;-70
2022/10/24 05:49:07;;;;;;;13.70;3.67;;;14.40;99.90;;;;;;21077129;28;20272;-71
2022/10/24 05:59:10;;;;;;;12.20;3.80;;;14.40;99.90;;;;;;21077298;28;20198;-71
2022/10/24 06:09:12;;;;;;;17.57;4.60;;;14.50;99.90;;;;;;21079041;28;20283;-71
2022/10/24 06:19:14;;;;;;;12.87;3.80;;;14.50;99.90;;;;;;21075667;28;20201;-70
2022/10/24 06:29:15;;;;;;;18.13;4.17;;;14.50;99.90;;;;;;21072215;28;20231;-71
2022/10/24 06:39:17;;;;;;;9.73;3.93;;;14.50;99.90;;;;;;21076705;28;20288;-71
2022/10/24 06:49:19;;;;;;;13.67;4.60;;;14.60;99.90;;;;;;21076947;28;20244;-70
2022/10/24 06:59:21;;;;;;;12.03;4.10;;;14.60;99.90;;;;;;21075790;28;20267;-70
2022/10/24 07:09:22;;;;;;;11.83;4.10;;;14.60;99.90;;;;;;21075454;28;20234;-71
2022/10/24 07:19:24;;;;;;;14.00;3.30;;;14.60;99.90;;;;;;21076552;28;20211;-71
2022/10/24 07:29:26;;;;;;;9.47;2.73;;;15.00;99.90;;;;;;21084158;28;20257;-71
2022/10/24 07:39:28;;;;;;;17.03;3.20;;;15.40;99.90;;;;;;21089607;28;20291;-71
2022/10/24 07:49:30;;;;;;;8.50;3.37;;;15.70;99.90;;;;;;21089042;28;20278;-71
2022/10/24 07:59:34;;;;;;;13.83;4.13;;;16.00;99.90;;;;;;21081004;28;20230;-69
2022/10/24 08:09:45;;;;;;;11.53;2.77;;;16.20;99.90;;;;;;21113819;28;20706;-70
2022/10/24 08:19:47;;;;;;;15.07;4.30;;;16.40;99.90;;;;;;21126540;28;20207;-70
2022/10/24 08:29:49;;;;;;;8.27;2.93;;;16.50;99.90;;;;;;21170556;28;20249;-71
2022/10/24 08:39:54;;;;;;;10.27;2.43;;;16.50;99.90;;;;;;21168114;28;20249;-71
2022/10/24 08:50:03;;;;;;;13.97;3.23;;;16.60;99.90;;;;;;21168220;28;20236;-77
2022/10/24 09:00:18;;;;;;;10.00;3.43;;;16.70;99.90;;;;;;21090314;28;20199;-72
2022/10/24 09:10:28;;;;;;;13.00;3.53;;;16.70;99.90;;;;;;21080114;28;20240;-75
2022/10/24 09:20:32;;;;;;;15.23;3.30;;;16.80;99.90;;;;;;21081765;28;20291;-73
2022/10/24 09:30:36;;;;;;;14.90;3.60;;;16.90;99.90;;;;;;21081141;28;20628;-75
2022/10/24 09:40:38;;;;;;;15.40;3.40;;;17.00;99.90;;;;;;21080528;28;20232;-73
2022/10/24 09:50:42;;;;;;;11.43;3.50;;;17.00;99.90;;;;;;21077773;28;20233;-76
2022/10/24 10:00:56;;;;;;;11.93;3.50;;;17.00;99.90;;;;;;21078602;28;20232;-74
2022/10/24 10:11:07;;;;;;;16.43;6.10;;;17.00;99.90;;;;;;21078666;28;20237;-74
2022/10/24 10:21:19;;;;;;;14.83;2.93;;;17.10;99.90;;;;;;21078130;28;20292;-74
2022/10/24 10:31:49;;;;;;;10.23;2.57;;;17.20;99.90;;;;;;21077718;28;20235;-73
2022/10/24 10:41:53;;;;;;;9.23;3.37;;;17.40;99.90;;;;;;21077011;28;20233;-72
2022/10/24 10:52:04;;;;;;;11.40;3.80;;;17.50;99.90;;;;;;21075943;28;20239;-74
2022/10/24 11:02:27;;;;;;;9.23;2.60;;;17.60;99.90;;;;;;21080565;28;20205;-72
2022/10/24 11:12:39;;;;;;;6.67;2.70;;;17.70;99.90;;;;;;21090450;28;20241;-76
2022/10/24 11:22:47;;;;;;;8.57;2.60;;;17.70;99.90;;;;;;21090129;28;20220;-73
2022/10/24 11:33:00;;;;;;;8.13;2.27;;;17.80;99.90;;;;;;21090730;28;20243;-69
2022/10/24 11:43:15;;;;;;;10.00;2.93;;;17.70;99.90;;;;;;21088792;28;20288;-73
2022/10/24 11:53:31;;;;;;;7.40;2.07;;;17.70;99.90;;;;;;21087204;28;20252;-72
2022/10/24 12:03:55;;;;;;;7.43;2.10;;;17.80;99.90;;;;;;21097891;28;20231;-80
2022/10/24 12:14:18;;;;;;;5.50;2.37;;;17.80;99.90;;;;;;21149061;28;20562;-81
2022/10/24 12:24:37;;;;;;;5.17;2.20;;;17.90;99.90;;;;;;21137776;28;20232;-76
2022/10/24 12:34:42;;;;;;;7.33;2.20;;;18.00;99.90;;;;;;21094473;28;20303;-76
2022/10/24 12:44:58;;;;;;;4.07;2.00;;;18.00;99.90;;;;;;21083514;28;20695;-75
2022/10/24 12:55:00;;;;;;;7.13;2.57;;;18.10;99.90;;;;;;21083423;28;20232;-77
2022/10/24 13:05:44;;;;;;;7.50;2.07;;;18.10;99.90;;;;;;21082759;28;20283;-77
2022/10/24 13:16:12;;;;;;;4.50;1.90;;;18.20;99.90;;;;;;21085553;28;20283;-76
2022/10/24 13:26:40;;;;;;;9.87;2.73;;;18.20;99.90;;;;;;21081297;28;20272;-68
2022/10/24 13:36:44;;;;;;;11.13;7.73;;;18.30;99.90;;;;;;21100913;28;20227;-72
2022/10/24 13:46:51;;;;;;;8.80;2.50;;;18.40;99.90;;;;;;21040673;28;20690;-70
2022/10/24 13:56:55;;;;;;;9.10;2.47;;;18.60;99.90;;;;;;20996037;28;20546;-75
2022/10/24 14:07:05;;;;;;;7.13;3.17;;;18.70;99.90;;;;;;20993160;28;20264;-77
2022/10/24 14:17:18;;;;;;;6.13;2.50;;;18.70;99.90;;;;;;20994846;28;20272;-79
2022/10/24 14:27:24;;;;;;;8.80;2.23;;;18.70;99.90;;;;;;20996731;28;20291;-72
2022/10/24 14:37:35;;;;;;;12.47;2.47;;;18.60;99.90;;;;;;20999871;28;20266;-72
2022/10/24 14:47:38;;;;;;;7.80;2.40;;;18.50;99.90;;;;;;21011929;28;20609;-73
2022/10/24 14:57:46;;;;;;;6.50;2.53;;;18.60;99.90;;;;;;21013408;28;20677;-81
2022/10/24 15:08:14;;;;;;;9.93;2.63;;;18.80;99.90;;;;;;21013407;28;20693;-82
2022/10/24 15:18:28;;;;;;;6.50;2.53;;;18.70;99.90;;;;;;21006952;28;20535;-82
2022/10/24 15:28:55;;;;;;;6.20;2.20;;;18.60;99.90;;;;;;21023695;28;20234;-78
2022/10/24 15:39:03;;;;;;;7.67;2.20;;;18.40;99.90;;;;;;21072906;28;20241;-79
2022/10/24 15:49:05;;;;;;;9.97;2.20;;;18.30;99.90;;;;;;21085354;28;20278;-83
2022/10/24 15:59:07;;;;;;;7.10;2.50;;;18.10;99.90;;;;;;21089227;28;20243;-76
2022/10/24 16:09:18;;;;;;;10.37;2.40;;;18.10;99.90;;;;;;21087442;28;20232;-75
2022/10/24 16:19:20;;;;;;;7.10;2.67;;;17.90;99.90;;;;;;21082201;28;20433;-76
2022/10/24 16:29:21;;;;;;;11.40;2.80;;;18.20;99.90;;;;;;21086841;28;20291;-71
2022/10/24 16:39:23;;;;;;;5.80;2.80;;;17.70;99.90;;;;;;21085424;28;20240;-74
2022/10/24 16:49:25;;;;;;;5.37;2.73;;;17.60;99.90;;;;;;21085486;28;20505;-75
2022/10/24 16:59:27;;;;;;;12.97;2.77;;;17.50;99.90;;;;;;21084042;28;20208;-81
2022/10/24 17:09:29;;;;;;;5.17;2.33;;;17.30;99.90;;;;;;21083406;28;20722;-75
2022/10/24 17:19:31;;;;;;;7.60;2.93;;;17.30;99.90;;;;;;21082333;28;20243;-77
2022/10/24 17:29:33;;;;;;;11.33;2.70;;;17.20;99.90;;;;;;21081778;28;20234;-73
2022/10/24 17:39:53;;;;;;;5.87;2.90;;;17.20;99.90;;;;;;21079075;28;20240;-76
2022/10/24 17:49:55;;;;;;;7.07;2.40;;;17.20;99.90;;;;;;21094099;28;20234;-76
2022/10/24 17:59:57;;;;;;;7.33;2.67;;;17.10;99.90;;;;;;21077341;28;20209;-74
2022/10/24 18:10:00;;;;;;;10.63;2.80;;;17.10;99.90;;;;;;21077993;28;20229;-75
2022/10/24 18:20:02;;;;;;;9.73;2.93;;;17.00;99.90;;;;;;21078441;28;20708;-75
2022/10/24 18:30:05;;;;;;;6.73;2.23;;;17.00;99.90;;;;;;21078442;28;20238;-75
2022/10/24 18:40:08;;;;;;;7.37;2.80;;;17.00;99.90;;;;;;21112790;28;20240;-76
2022/10/24 18:50:18;;;;;;;6.93;3.53;;;17.00;99.90;;;;;;21078133;28;20324;-77
2022/10/24 19:00:23;;;;;;;7.17;2.67;;;16.90;99.90;;;;;;21078219;28;20724;-78
2022/10/24 19:10:27;;;;;;;5.17;2.20;;;16.80;99.90;;;;;;21071714;28;20242;-72
2022/10/24 19:20:31;;;;;;;7.03;2.20;;;16.90;99.90;;;;;;21071664;28;20203;-70
2022/10/24 19:30:32;;;;;;;4.77;2.20;;;16.90;99.90;;;;;;21086626;28;20291;-72
2022/10/24 19:40:34;;;;;;;7.07;2.20;;;16.90;99.90;;;;;;21122144;28;20701;-70
2022/10/24 19:50:36;;;;;;;3.90;2.37;;;16.80;99.90;;;;;;21084579;28;20736;-71
2022/10/24 20:00:39;;;;;;;9.40;4.50;;;16.80;99.90;;;;;;21083194;28;20567;-72
2022/10/24 20:10:40;;;;;;;3.90;2.43;;;16.80;99.90;;;;;;21081940;28;20230;-71
2022/10/24 20:20:42;;;;;;;9.77;2.57;;;16.70;99.90;;;;;;21081666;28;20206;-71
2022/10/24 20:30:45;;;;;;;7.53;2.83;;;16.60;99.90;;;;;;21083195;28;20265;-71
2022/10/24 20:40:47;;;;;;;2.93;2.00;;;16.60;99.90;;;;;;21132858;28;20281;-71
2022/10/24 20:50:49;;;;;;;6.00;2.20;;;16.50;99.90;;;;;;20992292;28;20238;-72
2022/10/24 21:00:50;;;;;;;2.77;1.93;;;16.50;99.90;;;;;;20991381;28;20241;-76
2022/10/24 21:10:52;;;;;;;2.43;1.60;;;16.40;99.90;;;;;;20990872;28;20263;-73
2022/10/24 21:20:54;;;;;;;3.97;1.73;;;16.30;99.90;;;;;;20990618;28;20807;-72
2022/10/24 21:30:55;;;;;;;3.30;1.47;;;16.30;99.90;;;;;;20990022;28;20690;-76
2022/10/24 21:41:01;;;;;;;2.37;1.37;;;16.20;99.90;;;;;;21038806;28;20567;-76
2022/10/24 21:51:10;;;;;;;3.57;1.40;;;16.20;99.90;;;;;;21072015;28;20313;-75
2022/10/24 22:01:14;;;;;;;2.60;1.30;;;16.10;99.90;;;;;;21072203;28;20202;-72
2022/10/24 22:11:19;;;;;;;6.13;1.63;;;16.00;99.90;;;;;;21071523;28;20692;-74
2022/10/24 22:21:20;;;;;;;2.57;1.70;;;15.90;99.90;;;;;;21070179;28;20204;-75
2022/10/24 22:31:23;;;;;;;2.43;1.93;;;15.80;99.90;;;;;;21071053;28;20230;-72
2022/10/24 22:41:27;;;;;;;2.23;1.20;;;15.80;99.90;;;;;;21072101;28;20330;-75
2022/10/24 22:51:29;;;;;;;4.23;1.20;;;15.70;99.90;;;;;;21071713;28;20234;-72
2022/10/24 23:01:30;;;;;;;3.67;1.20;;;15.60;99.90;;;;;;21084087;28;20206;-72
2022/10/24 23:11:32;;;;;;;4.20;1.30;;;15.60;99.90;;;;;;21086980;28;20280;-72
2022/10/24 23:21:44;;;;;;;2.33;1.17;;;15.50;99.90;;;;;;21086280;28;20205;-71
2022/10/24 23:31:46;;;;;;;7.67;1.30;;;15.50;99.90;;;;;;21085565;28;20240;-73
2022/10/24 23:41:48;;;;;;;4.50;1.40;;;15.50;99.90;;;;;;21084911;28;20234;-74
2022/10/24 23:52:00;;;;;;;3.53;1.40;;;15.40;99.90;;;;;;21083928;28;20260;-72
